Tortola's Pride — HO-3796 — position and weather

sailwx.info

Track history (hours):
 
Tides and Currents Weather Stations Pressure Air Temp Water Temp Dewpoint Dewpoint Depression Visibility Wind Speed Wind Dir Waves Ship Positions

Tortola's Pride

Last reported at 2015-Jul-09 00:33 UTC. Time now 2015-Aug-03 00:26 UTC.
Position N 18°24' W 064°37'.
Warning: this ship's position is 24 days out of date.

Length 49 m; draft 2.8 m.

Type: Cargo ship. MMSI: 355921000.

Date/timePositionNaut miles runAvg speedWind from/ knotsBaromVisibWave heightAir tempDewpointWater temp
2015-Jul-09 00:33N 18°24' W 064°37'8 8.4
2015-Jul-08 23:33N 18°23' W 064°45'8 1.0
2015-Jul-08 15:33N 18°18' W 064°52'9 8.6
2015-Jul-08 14:33N 18°23' W 064°44'7 2.4
2015-Jul-08 11:33N 18°23' W 064°37'8 7.9
2015-Jul-08 10:30N 18°17' W 064°43'8 8.0
2015-Jul-08 09:30N 18°15' W 064°51'4 0.1
2015-Jul-06 14:13N 18°18' W 064°54'6 8.5
2015-Jul-06 13:33N 18°20' W 064°48'9 9.1
2015-Jul-06 12:33N 18°23' W 064°39'  
2015-Jul-03 12:33N 18°23' W 064°39'8 7.6
2015-Jul-03 11:33N 18°23' W 064°47'8 8.1
2015-Jul-03 10:33N 18°26' W 064°55'  
2015-Jul-01 04:05N 18°26' W 064°57'5 9.0
2015-Jul-01 03:33N 18°25' W 064°52'9 8.8
2015-Jul-01 02:33N 18°23' W 064°43'  
Track history (hours):
 
Tides and Currents Weather Stations Pressure Air Temp Water Temp Dewpoint Dewpoint Depression Visibility Wind Speed Wind Dir Waves Ship Positions

Tortola's Pride

Last reported at 2015-Jul-09 00:33 UTC. Time now 2015-Aug-03 00:26 UTC.
Position N 18°24' W 064°37'.
Warning: this ship's position is 24 days out of date.

Length 49 m; draft 2.8 m.

Type: Cargo ship. MMSI: 355921000.

Date/timePositionNaut miles runAvg speedWind from/ knotsBaromVisibWave heightAir tempDewpointWater temp
2015-Jul-09 00:33N 18°24' W 064°37'8 8.4
2015-Jul-08 23:33N 18°23' W 064°45'8 1.0
2015-Jul-08 15:33N 18°18' W 064°52'9 8.6
2015-Jul-08 14:33N 18°23' W 064°44'7 2.4
2015-Jul-08 11:33N 18°23' W 064°37'8 7.9
2015-Jul-08 10:30N 18°17' W 064°43'8 8.0
2015-Jul-08 09:30N 18°15' W 064°51'4 0.1
2015-Jul-06 14:13N 18°18' W 064°54'6 8.5
2015-Jul-06 13:33N 18°20' W 064°48'9 9.1
2015-Jul-06 12:33N 18°23' W 064°39'  
2015-Jul-03 12:33N 18°23' W 064°39'8 7.6
2015-Jul-03 11:33N 18°23' W 064°47'8 8.1
2015-Jul-03 10:33N 18°26' W 064°55'  
2015-Jul-01 04:05N 18°26' W 064°57'5 9.0
2015-Jul-01 03:33N 18°25' W 064°52'9 8.8
2015-Jul-01 02:33N 18°23' W 064°43'  

Dump ship's entire track history